Time;durP1;ratioP1;P1;durP2;ratioP2;P2;SDS_P1;SDS_P2;PMS_P1;PMS_P2;Temp;Humidity;BMP_temperature;BMP_pressure;BME280_temperature;BME280_humidity;BME280_pressure;Samples;Min_cycle;Max_cycle;Signal;HPM_P1;HPM_P2
2022/05/03 00:00:24;;;;;;;4.72;1.50;;;;;;;9.18;100.00;101727.78;10096162;28;20055;-64
2022/05/03 00:05:53;;;;;;;4.88;1.80;;;;;;;9.13;100.00;101721.56;10092179;28;20052;-64
2022/05/03 00:11:16;;;;;;;5.60;2.40;;;;;;;9.06;100.00;101717.25;10084739;28;20501;-64
2022/05/03 00:16:15;;;;;;;6.30;2.20;;;;;;;9.05;100.00;101715.63;10088887;28;20127;-64
2022/05/03 00:21:12;;;;;;;5.25;2.45;;;;;;;9.06;100.00;101705.53;10087148;28;20058;-64
2022/05/03 00:26:09;;;;;;;6.00;2.20;;;;;;;8.99;100.00;101708.56;10087957;28;20055;-62
2022/05/03 00:31:06;;;;;;;6.68;2.17;;;;;;;8.94;100.00;101705.88;10103842;28;20105;-62
2022/05/03 00:36:03;;;;;;;4.22;2.17;;;;;;;8.88;100.00;101707.00;10115442;28;20791;-64
2022/05/03 00:41:04;;;;;;;4.53;2.25;;;;;;;8.87;100.00;101705.38;10102846;28;20078;-64
2022/05/03 00:46:05;;;;;;;5.25;2.03;;;;;;;8.79;100.00;101708.69;10114525;28;20053;-63
2022/05/03 00:51:18;;;;;;;6.38;2.42;;;;;;;8.88;100.00;101707.00;10096204;28;20466;-64
2022/05/03 00:56:47;;;;;;;4.75;2.10;;;;;;;8.88;100.00;101715.16;10113906;28;20050;-64
2022/05/03 01:01:57;;;;;;;3.85;2.13;;;;;;;8.85;100.00;101707.56;10100323;28;20070;-63
2022/05/03 01:07:11;;;;;;;5.05;1.88;;;;;;;8.73;100.00;101698.91;10085502;28;20051;-65
2022/05/03 01:12:35;;;;;;;4.45;1.85;;;;;;;8.69;100.00;101706.84;10099806;28;20094;-64
2022/05/03 01:17:44;;;;;;;5.90;2.05;;;;;;;8.67;100.00;101700.84;10053088;28;20035;-63
2022/05/03 01:22:46;;;;;;;5.20;2.10;;;;;;;8.57;100.00;101690.81;10105762;28;20055;-64
2022/05/03 01:28:02;;;;;;;3.97;1.80;;;;;;;8.58;100.00;101686.97;10082319;28;20080;-63
2022/05/03 01:33:06;;;;;;;4.80;2.20;;;;;;;8.66;100.00;101684.75;10074380;28;21274;-65
2022/05/03 01:38:18;;;;;;;4.88;2.22;;;;;;;8.67;100.00;101689.13;10095107;28;20134;-65
2022/05/03 01:43:32;;;;;;;4.72;2.30;;;;;;;8.62;100.00;101682.59;10113806;28;20049;-65
2022/05/03 01:54:27;;;;;;;8.90;3.92;;;;;;;8.53;100.00;101678.81;10079095;28;20518;-64
2022/05/03 01:59:31;;;;;;;6.78;3.50;;;;;;;8.46;100.00;101678.31;10100915;28;20070;-65
2022/05/03 02:04:50;;;;;;;6.13;3.30;;;;;;;8.42;100.00;101674.53;10072955;28;20047;-65
2022/05/03 02:10:12;;;;;;;9.13;3.38;;;;;;;8.29;100.00;101677.84;10080414;28;20047;-65
2022/05/03 02:15:12;;;;;;;10.05;4.50;;;;;;;8.37;100.00;101677.25;10105906;28;20067;-62
2022/05/03 02:20:48;;;;;;;6.85;4.22;;;;;;;8.32;100.00;101682.72;10080723;28;20090;-63
2022/05/03 02:26:09;;;;;;;8.25;4.47;;;;;;;8.27;100.00;101685.47;10090165;28;20046;-64
2022/05/03 02:31:18;;;;;;;8.88;3.95;;;;;;;8.31;100.00;101678.34;10094805;28;20093;-64
2022/05/03 02:36:16;;;;;;;7.03;3.78;;;;;;;8.35;100.00;101673.97;10084837;28;20051;-64
2022/05/03 02:41:16;;;;;;;6.60;4.05;;;;;;;8.29;100.00;101666.94;10071354;28;20070;-64
2022/05/03 02:46:38;;;;;;;11.40;4.50;;;;;;;8.33;100.00;101668.81;10083220;28;20070;-64
2022/05/03 02:51:52;;;;;;;9.48;3.88;;;;;;;8.40;100.00;101660.34;10093896;28;20043;-64
2022/05/03 02:56:56;;;;;;;8.18;4.00;;;;;;;8.48;100.00;101659.78;10090926;28;20078;-65
2022/05/03 03:02:13;;;;;;;8.30;4.50;;;;;;;8.40;100.00;101663.06;10094900;28;20047;-63
2022/05/03 03:07:17;;;;;;;7.80;4.50;;;;;;;8.43;100.00;101662.53;10069013;28;20126;-66
2022/05/03 03:12:26;;;;;;;8.35;4.72;;;;;;;8.42;100.00;101652.72;10086012;28;20074;-63
2022/05/03 03:17:28;;;;;;;9.65;4.30;;;;;;;8.29;100.00;101656.84;10075718;28;20074;-65
2022/05/03 03:22:39;;;;;;;7.18;4.60;;;;;;;8.34;100.00;101658.72;10083360;28;20055;-63
2022/05/03 03:27:37;;;;;;;9.57;5.60;;;;;;;8.41;100.00;101648.38;10079705;28;20074;-63
2022/05/03 03:32:39;;;;;;;9.27;5.07;;;;;;;8.38;100.00;101648.91;10092884;28;20142;-66
2022/05/03 03:37:36;;;;;;;9.60;5.57;;;;;;;8.31;100.00;101642.91;10089555;28;20082;-64
2022/05/03 03:42:33;;;;;;;12.02;6.05;;;;;;;8.17;100.00;101643.56;10090294;28;20119;-65
2022/05/03 03:47:30;;;;;;;10.10;5.80;;;;;;;8.10;100.00;101653.94;10087772;28;20053;-65
2022/05/03 03:52:27;;;;;;;9.80;6.05;;;;;;;8.06;100.00;101654.78;10092211;28;20054;-64
2022/05/03 03:57:24;;;;;;;8.90;5.90;;;;;;;8.16;100.00;101657.44;10095162;28;20129;-65
2022/05/03 04:02:22;;;;;;;9.07;5.35;;;;;;;8.22;100.00;101668.03;10097795;28;20055;-65
2022/05/03 04:07:19;;;;;;;9.93;5.95;;;;;;;8.23;100.00;101661.50;10090098;28;20155;-65
2022/05/03 04:12:19;;;;;;;10.73;6.38;;;;;;;8.40;100.00;101663.06;10094849;28;20094;-64
2022/05/03 04:17:15;;;;;;;8.45;5.65;;;;;;;8.49;100.00;101666.84;10090186;28;20628;-65
2022/05/03 04:22:29;;;;;;;11.82;6.43;;;;;;;8.54;100.00;101663.28;10091320;28;20126;-63
2022/05/03 04:27:28;;;;;;;;;;;;;;;8.58;100.00;101670.63;10078605;28;20054;-64
2022/05/03 04:32:29;;;;;;;11.07;6.63;;;;;;;8.60;100.00;101657.53;10107256;28;20561;-64
2022/05/03 04:37:27;;;;;;;9.45;6.43;;;;;;;8.68;100.00;101669.78;10096425;28;20046;-64
2022/05/03 04:42:23;;;;;;;12.32;7.28;;;;;;;8.57;100.00;101669.00;10079590;28;20102;-64
2022/05/03 04:47:20;;;;;;;9.63;6.35;;;;;;;8.69;100.00;101665.94;10099153;28;20046;-65
2022/05/03 04:52:16;;;;;;;13.32;7.10;;;;;;;8.57;100.00;101669.00;10112523;28;20138;-64
2022/05/03 04:57:14;;;;;;;12.18;7.22;;;;;;;8.71;100.00;101669.19;10098198;28;20555;-64
2022/05/03 05:02:11;;;;;;;12.25;6.70;;;;;;;8.87;100.00;101677.28;10107931;28;20550;-63
2022/05/03 05:07:10;;;;;;;11.52;6.35;;;;;;;8.95;100.00;101674.75;10095620;28;20047;-64
2022/05/03 05:12:06;;;;;;;13.75;8.02;;;;;;;9.02;100.00;101685.34;10108293;28;20083;-64
2022/05/03 05:17:04;;;;;;;13.55;7.40;;;;;;;8.95;100.00;101685.66;10080867;28;20094;-64
2022/05/03 05:22:01;;;;;;;12.60;7.40;;;;;;;8.94;100.00;101694.16;10087294;28;20079;-64
2022/05/03 05:26:57;;;;;;;13.63;7.57;;;;;;;9.10;100.00;101692.13;10084142;28;20122;-62
2022/05/03 05:31:54;;;;;;;12.25;7.07;;;;;;;9.18;100.00;101691.53;10084364;28;20142;-64
2022/05/03 05:36:50;;;;;;;12.45;7.80;;;;;;;9.28;100.00;101683.25;10083131;28;20489;-63
2022/05/03 05:41:58;;;;;;;11.13;6.93;;;;;;;9.48;100.00;101688.53;10082081;28;20047;-63
2022/05/03 05:46:55;;;;;;;13.15;8.02;;;;;;;9.54;100.00;101685.75;10077831;28;20071;-63
2022/05/03 05:53:31;;;;;;;11.45;7.20;;;;;;;9.60;100.00;101687.34;10078329;28;20074;-63
2022/05/03 05:57:08;;;;;;;11.23;7.55;;;;;;;9.52;100.00;101682.53;10074475;28;20494;-64
2022/05/03 06:02:04;;;;;;;12.85;8.38;;;;;;;9.62;100.00;101687.88;10079107;28;20421;-63
2022/05/03 06:07:01;;;;;;;13.50;9.15;;;;;;;9.54;100.00;101685.75;10101769;28;20496;-64
2022/05/03 06:11:58;;;;;;;16.80;10.77;;;;;;;9.47;100.00;101695.09;10110985;28;20046;-63
2022/05/03 06:16:56;;;;;;;18.77;10.00;;;;;;;9.51;100.00;101691.78;10092547;28;20074;-63
2022/05/03 06:21:52;;;;;;;18.58;11.27;;;;;;;9.54;100.00;101696.66;10100379;28;20042;-63
2022/05/03 06:26:49;;;;;;;16.70;10.85;;;;;;;9.65;100.00;101692.75;10098275;28;20074;-64
2022/05/03 06:31:45;;;;;;;16.13;10.85;;;;;;;9.63;100.00;101703.13;10107216;28;20054;-65
2022/05/03 06:36:42;;;;;;;17.17;10.65;;;;;;;9.68;100.00;101705.84;10095462;28;20130;-64
2022/05/03 06:41:39;;;;;;;21.83;14.60;;;;;;;9.65;100.00;101698.22;10106063;28;20101;-64
2022/05/03 06:46:35;;;;;;;25.48;13.27;;;;;;;9.64;100.00;101719.25;10096058;28;20137;-64
2022/05/03 06:51:32;;;;;;;28.20;14.05;;;;;;;9.64;100.00;101718.44;10105800;28;20053;-66
2022/05/03 06:56:35;;;;;;;25.50;14.38;;;;;;;9.64;100.00;101723.91;10105895;28;20161;-66
2022/05/03 07:01:32;;;;;;;22.27;14.30;;;;;;;9.64;100.00;101729.38;10100940;28;20237;-66
2022/05/03 07:06:28;;;;;;;21.73;14.95;;;;;;;9.63;100.00;101738.63;10091675;28;20385;-66
2022/05/03 07:11:25;;;;;;;22.73;14.10;;;;;;;9.68;100.00;101733.16;10101791;28;20106;-65
2022/05/03 07:16:22;;;;;;;24.65;13.13;;;;;;;9.77;100.00;101739.63;10099030;28;20137;-66
2022/05/03 07:26:33;;;;;;;26.75;14.55;;;;;;;9.93;100.00;101747.66;10106680;28;20505;-66
2022/05/03 07:31:30;;;;;;;26.13;14.65;;;;;;;10.09;100.00;101746.41;10115971;28;20065;-66
2022/05/03 07:36:30;;;;;;;23.33;14.38;;;;;;;10.18;100.00;101744.66;10103050;28;20394;-65
2022/05/03 07:41:26;;;;;;;23.50;13.68;;;;;;;10.13;100.00;101752.91;10106482;28;20054;-64
2022/05/03 07:46:23;;;;;;;22.67;12.55;;;;;;;10.00;100.00;101753.59;10113621;28;20043;-65
2022/05/03 07:51:19;;;;;;;21.83;13.27;;;;;;;10.05;100.00;101761.78;10114475;28;20054;-65
2022/05/03 07:56:16;;;;;;;21.60;12.00;;;;;;;10.02;100.00;101751.41;10109341;28;20576;-65
2022/05/03 08:01:13;;;;;;;22.48;12.55;;;;;;;10.03;100.00;101758.50;10113890;28;20078;-65
2022/05/03 08:06:09;;;;;;;24.25;13.25;;;;;;;10.07;100.00;101759.53;10091325;28;20138;-66
2022/05/03 08:11:06;;;;;;;24.33;12.57;;;;;;;10.13;100.00;101766.59;10104466;28;20621;-66
2022/05/03 08:16:03;;;;;;;23.45;14.25;;;;;;;10.17;100.00;101770.38;10112397;28;20129;-66
2022/05/03 08:20:59;;;;;;;26.65;14.15;;;;;;;10.12;100.00;101781.38;10102428;28;20811;-66
2022/05/03 08:25:56;;;;;;;24.73;14.13;;;;;;;10.09;100.00;101773.72;10092330;28;20042;-66
2022/05/03 08:30:52;;;;;;;25.45;14.45;;;;;;;10.14;100.00;101781.06;10099690;28;20794;-66
2022/05/03 08:35:49;;;;;;;24.80;14.98;;;;;;;10.04;100.00;101795.63;10103015;28;20051;-66
2022/05/03 08:46:06;;;;;;;23.10;14.48;;;;;;;10.04;100.00;101792.91;10091204;28;20639;-66
2022/05/03 08:51:03;;;;;;;22.35;14.52;;;;;;;10.17;100.00;101792.25;10105606;28;20050;-67
2022/05/03 08:56:00;;;;;;;25.02;13.20;;;;;;;10.28;100.00;101792.94;10109203;28;20453;-65
2022/05/03 09:00:56;;;;;;;24.13;12.48;;;;;;;10.60;100.00;101789.59;10111337;28;20058;-65
2022/05/03 09:05:53;;;;;;;20.08;10.57;;;;;;;10.67;100.00;101790.06;10093340;28;20047;-65
2022/05/03 09:10:50;;;;;;;20.10;8.88;;;;;;;11.01;100.00;101788.28;10112577;28;20677;-68
2022/05/03 09:16:14;;;;;;;17.67;8.35;;;;;;;11.32;100.00;101786.72;10099340;28;20047;-65
2022/05/03 09:26:41;;;;;;;16.13;5.63;;;;;;;11.40;100.00;101801.69;10091226;28;20055;-65
2022/05/03 09:31:47;;;;;;;17.35;5.93;;;;;;;11.35;100.00;101788.06;10105555;28;20054;-64
2022/05/03 09:36:47;;;;;;;14.90;6.35;;;;;;;11.47;100.00;101791.16;10103902;28;20062;-64
2022/05/03 09:42:09;;;;;;;15.75;5.43;;;;;;;11.46;100.00;101789.53;10107587;28;20055;-65
2022/05/03 09:47:09;;;;;;;12.63;6.10;;;;;;;11.55;100.00;101787.72;10089879;28;20038;-64
2022/05/03 09:52:07;;;;;;;12.35;5.50;;;;;;;11.67;100.00;101795.50;10102502;28;20093;-65
2022/05/03 09:57:03;;;;;;;11.75;3.95;;;;;;;11.71;100.00;101784.75;10091195;28;20035;-64
2022/05/03 10:02:02;;;;;;;13.32;3.83;;;;;;;12.16;100.00;101785.09;10088144;28;20535;-65
2022/05/03 10:06:59;;;;;;;10.38;2.42;;;;;;;13.37;100.00;101776.59;10082024;28;20055;-65
2022/05/03 10:11:55;;;;;;;10.13;2.55;;;;;;;13.87;100.00;101766.25;10088359;28;20078;-65
2022/05/03 10:22:09;;;;;;;10.52;2.95;;;;;;;14.63;100.00;101759.00;10079590;28;20744;-66
2022/05/03 10:27:05;;;;;;;8.65;2.47;;;;;;;15.10;96.67;101759.22;10092286;28;20075;-66
2022/05/03 10:32:22;;;;;;;11.15;2.67;;;;;;;15.11;92.50;101769.94;10103400;28;20673;-66
2022/05/03 10:37:33;;;;;;;12.18;2.70;;;;;;;14.05;96.00;101760.84;10084923;28;20094;-65
2022/05/03 10:42:32;;;;;;;7.30;2.22;;;;;;;13.52;100.00;101759.72;10079624;28;20043;-64
2022/05/03 10:47:47;;;;;;;10.13;2.10;;;;;;;13.60;100.00;101767.22;10076864;28;20178;-64
2022/05/03 10:53:07;;;;;;;8.77;1.80;;;;;;;13.80;100.00;101770.56;10086830;28;20094;-64
2022/05/03 10:58:31;;;;;;;10.35;2.15;;;;;;;13.66;100.00;101776.94;10082717;28;20047;-64
2022/05/03 11:03:28;;;;;;;5.15;1.60;;;;;;;13.65;97.44;101769.84;10086666;28;20094;-64
2022/05/03 11:08:24;;;;;;;5.57;1.63;;;;;;;14.23;94.23;101765.31;10093042;28;20043;-64
2022/05/03 11:13:40;;;;;;;9.70;1.77;;;;;;;14.72;87.09;101757.06;10098527;28;20597;-64
2022/05/03 11:18:38;;;;;;;7.15;1.55;;;;;;;15.54;79.62;101758.06;10086233;28;20051;-64
2022/05/03 11:23:55;;;;;;;5.55;1.40;;;;;;;15.68;78.24;101754.31;10082781;28;20059;-64
2022/05/03 11:28:52;;;;;;;7.80;1.42;;;;;;;16.29;72.24;101751.41;10087895;28;20050;-64
2022/05/03 11:33:56;;;;;;;8.15;1.58;;;;;;;16.30;69.32;101769.59;10102890;28;20109;-64
2022/05/03 11:38:54;;;;;;;8.02;1.75;;;;;;;15.65;72.80;101783.34;10084097;28;20055;-64
2022/05/03 11:43:51;;;;;;;5.88;1.52;;;;;;;16.28;67.13;101771.88;10104920;28;20137;-64
2022/05/03 11:48:54;;;;;;;8.90;2.05;;;;;;;16.72;60.06;101758.66;10087691;28;20102;-64
2022/05/03 11:59:05;;;;;;;12.35;1.73;;;;;;;16.20;64.10;101755.03;10090387;28;20412;-64
2022/05/03 12:04:04;;;;;;;7.05;1.50;;;;;;;15.65;74.58;101755.78;10107009;28;20435;-65
2022/05/03 12:09:01;;;;;;;9.50;1.88;;;;;;;15.67;67.52;101756.28;10097289;28;20109;-64
2022/05/03 12:13:58;;;;;;;8.35;1.42;;;;;;;15.39;70.64;101746.72;10089959;28;20078;-64
2022/05/03 12:18:57;;;;;;;11.80;1.95;;;;;;;15.56;68.63;101757.75;10109992;28;20082;-64
2022/05/03 12:24:02;;;;;;;9.85;2.20;;;;;;;15.86;66.33;101749.63;10111069;28;20047;-64
2022/05/03 12:29:01;;;;;;;8.57;1.95;;;;;;;15.47;69.80;101743.16;10098197;28;20853;-63
2022/05/03 12:33:58;;;;;;;12.77;1.77;;;;;;;15.20;70.98;101750.66;10091563;28;20847;-63
2022/05/03 12:39:15;;;;;;;15.95;2.08;;;;;;;15.82;72.96;101743.94;10089727;28;20081;-64
2022/05/03 12:44:19;;;;;;;10.65;1.77;;;;;;;16.49;64.42;101738.81;10089694;28;20432;-64
2022/05/03 12:49:16;;;;;;;7.40;2.13;;;;;;;15.94;62.01;101734.97;10088393;28;20078;-64
2022/05/03 12:54:13;;;;;;;11.65;1.90;;;;;;;16.38;62.80;101738.38;10089993;28;20539;-64
2022/05/03 12:59:10;;;;;;;13.65;2.40;;;;;;;16.28;60.62;101723.00;10098206;28;20101;-64
2022/05/03 13:04:09;;;;;;;9.52;2.10;;;;;;;16.28;59.08;101738.75;10092451;28;20051;-65
2022/05/03 13:09:05;;;;;;;9.38;2.22;;;;;;;16.35;59.90;101728.00;10098746;28;20142;-64
2022/05/03 13:14:03;;;;;;;10.48;1.90;;;;;;;16.09;59.09;101720.66;10108076;28;20086;-64
2022/05/03 13:19:00;;;;;;;8.57;2.45;;;;;;;15.99;63.05;101710.00;10097352;28;20131;-64
2022/05/03 13:24:00;;;;;;;12.57;2.20;;;;;;;15.81;61.24;101708.44;10101984;28;20519;-64
2022/05/03 13:28:57;;;;;;;11.90;2.65;;;;;;;15.51;62.71;101727.59;10094137;28;20139;-64
2022/05/03 13:33:53;;;;;;;9.77;1.92;;;;;;;15.90;60.47;101723.00;10090094;28;20113;-64
2022/05/03 13:44:05;;;;;;;8.25;1.88;;;;;;;15.13;59.01;101722.75;10085534;28;20109;-63
2022/05/03 13:49:02;;;;;;;8.13;1.98;;;;;;;15.90;60.78;101712.78;10089133;28;20054;-64
2022/05/03 13:53:58;;;;;;;9.77;1.70;;;;;;;16.47;55.71;101722.56;10096809;28;20426;-63
2022/05/03 13:58:55;;;;;;;11.85;1.85;;;;;;;16.71;50.58;101724.72;10077335;28;20460;-63
2022/05/03 14:03:52;;;;;;;11.25;1.85;;;;;;;16.97;50.11;101724.56;10089600;28;20462;-66
2022/05/03 14:08:48;;;;;;;13.60;4.53;;;;;;;16.46;53.54;101707.16;10080051;28;20090;-66
2022/05/03 14:13:45;;;;;;;15.80;6.80;;;;;;;16.16;52.89;101709.09;10078187;28;20142;-66
2022/05/03 14:18:41;;;;;;;21.60;10.15;;;;;;;15.95;52.97;101722.81;10073016;28;20078;-65
2022/05/03 14:23:39;;;;;;;9.57;2.50;;;;;;;15.43;55.86;101725.66;10076029;28;20043;-66
2022/05/03 14:28:37;;;;;;;15.60;2.75;;;;;;;15.16;55.95;101722.13;10067484;28;20122;-64
2022/05/03 14:33:33;;;;;;;8.60;1.50;;;;;;;15.00;55.75;101724.56;10080518;28;20059;-63
2022/05/03 14:38:29;;;;;;;11.00;2.15;;;;;;;15.31;56.00;101718.84;10094311;28;20062;-64
2022/05/03 14:43:26;;;;;;;10.75;2.05;;;;;;;15.46;56.39;101725.84;10093290;28;20134;-64
2022/05/03 14:48:22;;;;;;;8.13;2.63;;;;;;;15.62;50.88;101728.06;10089475;28;20047;-64
2022/05/03 14:53:19;;;;;;;12.10;2.13;;;;;;;15.27;53.28;101717.91;10078280;28;20466;-64
2022/05/03 15:03:32;;;;;;;8.32;2.03;;;;;;;14.70;54.08;101723.56;10094580;28;20047;-63
2022/05/03 15:08:29;;;;;;;7.95;1.80;;;;;;;15.33;53.60;101708.31;10100505;28;20077;-64
2022/05/03 15:13:25;;;;;;;14.23;2.15;;;;;;;15.57;50.40;101709.75;10097952;28;20054;-64
2022/05/03 15:18:23;;;;;;;11.10;2.05;;;;;;;15.98;49.35;101708.38;10095494;28;20054;-65
2022/05/03 15:28:34;;;;;;;19.40;3.10;;;;;;;16.30;47.96;101714.41;10083842;28;20051;-65
2022/05/03 15:33:31;;;;;;;10.60;2.55;;;;;;;16.04;47.72;101712.56;10102711;28;20094;-65
2022/05/03 15:38:27;;;;;;;8.48;1.58;;;;;;;15.68;48.98;101711.03;10090239;28;20586;-66
2022/05/03 15:43:24;;;;;;;10.23;2.05;;;;;;;15.81;46.78;101716.72;10082531;28;20154;-67
2022/05/03 15:48:21;;;;;;;11.02;2.70;;;;;;;15.82;46.12;101716.38;10079333;28;20671;-66
2022/05/03 15:53:23;;;;;;;11.20;2.03;;;;;;;16.11;45.63;101707.34;10091255;28;20110;-67
2022/05/03 15:58:21;;;;;;;8.32;2.03;;;;;;;16.08;47.61;101713.53;10097334;28;20154;-67
2022/05/03 16:03:18;;;;;;;11.48;2.45;;;;;;;16.20;46.35;101710.88;10090186;28;20053;-67
2022/05/03 16:08:14;;;;;;;10.40;2.30;;;;;;;16.58;45.58;101709.19;10089840;28;20047;-67
2022/05/03 16:13:11;;;;;;;11.23;2.00;;;;;;;16.94;45.56;101705.91;10087415;28;20058;-68
2022/05/03 16:18:08;;;;;;;16.13;2.60;;;;;;;17.69;44.61;101707.78;10090676;28;20164;-67
2022/05/03 16:23:07;;;;;;;10.43;2.33;;;;;;;18.00;42.97;101706.47;10087456;28;20063;-67
2022/05/03 16:28:05;;;;;;;10.50;1.80;;;;;;;18.65;40.17;101710.13;10078675;28;20518;-67
2022/05/03 16:33:01;;;;;;;9.35;1.95;;;;;;;19.25;39.15;101709.53;10087574;28;20075;-67
2022/05/03 16:43:13;;;;;;;13.85;2.75;;;;;;;19.74;38.11;101698.22;10081828;28;20176;-66
2022/05/03 16:48:10;;;;;;;11.35;2.97;;;;;;;19.09;38.08;101707.50;10074262;28;20134;-67
2022/05/03 16:53:08;;;;;;;7.95;1.67;;;;;;;18.85;39.01;101702.88;10071962;28;20150;-66
2022/05/03 16:58:07;;;;;;;8.55;2.40;;;;;;;19.42;38.12;101698.13;10071592;28;20183;-68
2022/05/03 17:03:04;;;;;;;14.90;3.65;;;;;;;18.49;39.17;101696.19;10080797;28;20482;-65
2022/05/03 17:08:01;;;;;;;10.10;2.90;;;;;;;17.86;40.54;101702.06;10079783;28;20046;-64
2022/05/03 17:12:57;;;;;;;11.73;2.65;;;;;;;17.06;42.62;101704.31;10086146;28;20503;-64
2022/05/03 17:17:54;;;;;;;14.15;1.90;;;;;;;17.66;42.18;101705.69;10079197;28;20062;-65
2022/05/03 17:22:50;;;;;;;13.88;2.63;;;;;;;16.98;43.50;101712.34;10086582;28;20148;-65
2022/05/03 17:27:47;;;;;;;13.45;2.72;;;;;;;17.30;43.47;101709.97;10072030;28;20054;-65
2022/05/03 17:32:51;;;;;;;10.98;2.22;;;;;;;17.02;44.54;101712.50;10061553;28;20281;-65
2022/05/03 17:37:48;;;;;;;13.88;2.50;;;;;;;16.50;46.00;101713.66;10076177;28;20792;-65
2022/05/03 17:42:51;;;;;;;17.52;7.20;;;;;;;15.54;48.68;101721.44;10088330;28;20078;-65
2022/05/03 17:47:47;;;;;;;13.02;2.72;;;;;;;15.00;52.33;101729.25;10090238;28;20530;-68
2022/05/03 17:57:59;;;;;;;13.68;3.10;;;;;;;13.97;61.62;101725.84;10076918;28;20039;-68
2022/05/03 18:02:56;;;;;;;10.80;2.22;;;;;;;13.37;68.78;101732.63;10105703;28;20078;-68
2022/05/03 18:07:52;;;;;;;10.60;2.38;;;;;;;13.51;70.96;101738.88;10074646;28;20047;-69
2022/05/03 18:12:56;;;;;;;13.57;2.60;;;;;;;13.17;75.35;101742.94;10103841;28;20051;-66
2022/05/03 18:17:53;;;;;;;11.43;2.42;;;;;;;12.82;79.46;101731.63;10092777;28;20058;-68
2022/05/03 18:22:50;;;;;;;14.65;2.40;;;;;;;12.63;82.01;101739.19;10090259;28;20046;-68
2022/05/03 18:27:47;;;;;;;16.73;2.65;;;;;;;12.53;83.81;101744.88;10072344;28;20058;-68
2022/05/03 18:32:44;;;;;;;14.20;2.55;;;;;;;12.33;86.33;101757.91;10070614;28;20515;-67
2022/05/03 18:37:41;;;;;;;14.68;2.47;;;;;;;12.27;87.65;101750.88;10091886;28;20102;-67
2022/05/03 18:42:38;;;;;;;14.10;3.33;;;;;;;11.92;91.28;101764.13;10079304;28;20061;-65
2022/05/03 18:47:35;;;;;;;14.18;2.03;;;;;;;12.15;90.78;101756.06;10086999;28;20062;-65
2022/05/03 18:52:31;;;;;;;16.63;2.50;;;;;;;11.79;93.93;101753.94;10102881;28;20691;-65
2022/05/03 18:57:28;;;;;;;17.45;3.20;;;;;;;11.33;97.97;101762.91;10106781;28;20043;-65
2022/05/03 19:02:26;;;;;;;11.02;3.10;;;;;;;11.49;98.16;101767.03;10089075;28;20082;-65
2022/05/03 19:07:23;;;;;;;14.93;2.08;;;;;;;11.36;100.00;101759.56;10076162;28;20085;-64
2022/05/03 19:12:20;;;;;;;11.13;1.70;;;;;;;10.98;100.00;101767.81;10091537;28;20577;-64
2022/05/03 19:17:17;;;;;;;10.13;3.20;;;;;;;11.06;100.00;101763.56;10087832;28;20083;-65
2022/05/03 19:22:16;;;;;;;9.88;2.42;;;;;;;10.87;100.00;101777.25;10092147;28;20632;-65
2022/05/03 19:32:27;;;;;;;11.90;2.88;;;;;;;10.67;100.00;101781.84;10089023;28;20447;-64
2022/05/03 19:37:24;;;;;;;13.60;2.13;;;;;;;10.53;100.00;101772.72;10069004;28;20095;-64
2022/05/03 19:42:20;;;;;;;12.32;3.22;;;;;;;10.50;100.00;101773.31;10070126;28;20051;-64
2022/05/03 19:47:17;;;;;;;10.82;2.80;;;;;;;10.50;100.00;101784.25;10089060;28;20075;-65
2022/05/03 19:52:13;;;;;;;16.52;2.40;;;;;;;10.46;100.00;101780.47;10091563;28;20101;-70
2022/05/03 19:57:10;;;;;;;13.05;2.40;;;;;;;10.26;100.00;101774.09;10084247;28;20051;-69
2022/05/03 20:02:07;;;;;;;11.20;2.17;;;;;;;10.19;100.00;101779.09;10093431;28;20134;-65
2022/05/03 20:07:04;;;;;;;13.23;2.05;;;;;;;10.23;100.00;101779.31;10096527;28;20051;-65
2022/05/03 20:12:01;;;;;;;16.67;4.38;;;;;;;10.26;100.00;101784.22;10078362;28;20546;-66
2022/05/03 20:16:59;;;;;;;12.10;2.90;;;;;;;10.09;100.00;101785.50;10081142;28;20106;-65
2022/05/03 20:21:58;;;;;;;15.80;2.70;;;;;;;10.03;100.00;101781.16;10087299;28;20487;-67
2022/05/03 20:26:55;;;;;;;18.05;2.42;;;;;;;9.98;100.00;101785.84;10077717;28;20074;-67
2022/05/03 20:31:51;;;;;;;13.05;2.00;;;;;;;9.76;100.00;101786.34;10086934;28;20078;-65
2022/05/03 20:36:48;;;;;;;14.02;2.30;;;;;;;9.81;100.00;101800.75;10102578;28;20051;-66
2022/05/03 20:41:44;;;;;;;9.73;1.67;;;;;;;9.70;100.00;101801.97;10094061;28;20047;-66
2022/05/03 20:51:55;;;;;;;19.52;3.30;;;;;;;9.58;100.00;101812.41;10110695;28;20577;-65
2022/05/03 20:56:52;;;;;;;14.40;2.58;;;;;;;9.38;100.00;101808.72;10107347;28;20073;-65
2022/05/03 21:01:48;;;;;;;12.20;1.95;;;;;;;9.23;100.00;101806.09;10114209;28;20051;-65
2022/05/03 21:06:45;;;;;;;16.63;3.05;;;;;;;9.16;100.00;101811.03;10108907;28;20078;-64
2022/05/03 21:11:42;;;;;;;17.08;3.95;;;;;;;9.15;100.00;101814.88;10113071;28;20125;-68
2022/05/03 21:16:38;;;;;;;12.57;2.35;;;;;;;9.10;100.00;101812.16;10111961;28;20197;-67
2022/05/03 21:21:35;;;;;;;10.40;2.25;;;;;;;9.06;100.00;101807.28;10100673;28;20082;-67
2022/05/03 21:26:31;;;;;;;11.55;1.98;;;;;;;9.04;100.00;101806.72;10102883;28;20102;-67
2022/05/03 21:31:32;;;;;;;17.60;2.90;;;;;;;8.89;100.00;101803.25;10111346;28;20058;-67
2022/05/03 21:36:29;;;;;;;15.82;2.85;;;;;;;8.79;100.00;101815.03;10105280;28;20515;-68
2022/05/03 21:41:26;;;;;;;15.80;3.25;;;;;;;8.70;100.00;101814.78;10104448;28;20054;-68
2022/05/03 21:46:23;;;;;;;11.23;1.88;;;;;;;8.80;100.00;101814.75;10104306;28;20592;-68
2022/05/03 21:51:19;;;;;;;13.73;2.25;;;;;;;8.87;100.00;101814.47;10100399;28;20061;-67
2022/05/03 21:56:16;;;;;;;11.02;1.95;;;;;;;8.85;100.00;101816.66;10092852;28;20046;-65
2022/05/03 22:01:12;;;;;;;15.13;2.22;;;;;;;8.99;100.00;101809.50;10112698;28;20077;-65
2022/05/03 22:06:09;;;;;;;10.50;2.45;;;;;;;8.99;100.00;101817.69;10098757;28;20058;-65
2022/05/03 22:11:06;;;;;;;12.68;2.03;;;;;;;8.93;100.00;101816.06;10109725;28;20054;-70
2022/05/03 22:16:03;;;;;;;15.77;2.67;;;;;;;8.87;100.00;101814.47;10087748;28;20070;-67
2022/05/03 22:21:00;;;;;;;10.57;2.25;;;;;;;8.73;100.00;101821.63;10101566;28;20079;-67
2022/05/03 22:25:56;;;;;;;11.68;2.35;;;;;;;8.57;100.00;101821.66;10103419;28;20074;-67
2022/05/03 22:30:53;;;;;;;14.23;2.72;;;;;;;8.42;100.00;101818.97;10101620;28;20480;-67
2022/05/03 22:35:49;;;;;;;10.88;2.20;;;;;;;8.31;100.00;101822.75;10105514;28;20478;-67
2022/05/03 22:40:46;;;;;;;10.48;2.75;;;;;;;8.33;100.00;101826.88;10100105;28;20051;-67
2022/05/03 22:45:42;;;;;;;10.93;2.85;;;;;;;8.15;100.00;101830.97;10106141;28;20078;-67
2022/05/03 22:50:39;;;;;;;11.65;2.13;;;;;;;8.15;100.00;101830.16;10102374;28;20511;-65
2022/05/03 22:55:36;;;;;;;10.82;2.40;;;;;;;8.23;100.00;101827.69;10103978;28;20483;-65
2022/05/03 23:00:34;;;;;;;11.85;2.38;;;;;;;8.28;100.00;101823.31;10100992;28;20070;-66
2022/05/03 23:05:31;;;;;;;14.93;2.72;;;;;;;8.33;100.00;101820.59;10107161;28;20047;-64
2022/05/03 23:10:28;;;;;;;10.95;2.20;;;;;;;8.25;100.00;101824.69;10109475;28;20074;-65
2022/05/03 23:15:25;;;;;;;9.00;2.50;;;;;;;8.17;100.00;101828.81;10107799;28;20073;-65
2022/05/03 23:20:21;;;;;;;20.50;3.58;;;;;;;8.03;100.00;101827.72;10103776;28;20110;-65
2022/05/03 23:25:18;;;;;;;12.02;2.20;;;;;;;8.07;100.00;101831.50;10103043;28;20089;-65
2022/05/03 23:30:14;;;;;;;12.27;2.50;;;;;;;7.96;100.00;101836.16;10101936;28;20122;-66
2022/05/03 23:35:13;;;;;;;10.88;2.70;;;;;;;7.93;100.00;101833.16;10095430;28;20078;-67
2022/05/03 23:40:10;;;;;;;10.80;2.65;;;;;;;7.87;100.00;101828.81;10102864;28;20071;-70
2022/05/03 23:50:25;;;;;;;16.83;3.60;;;;;;;7.77;100.00;101825.00;10109271;28;20074;-70
2022/05/03 23:55:22;;;;;;;15.80;2.95;;;;;;;7.69;100.00;101822.81;10099259;28;20388;-67
